createdAt,value
2023-03-21T00:00:57.252Z,8.60
2023-03-21T00:03:26.059Z,8.60
2023-03-21T00:05:54.387Z,8.60
2023-03-21T00:08:24.067Z,8.60
2023-03-21T00:10:58.726Z,8.70
2023-03-21T00:13:28.406Z,8.70
2023-03-21T00:16:06.181Z,8.70
2023-03-21T00:18:46.692Z,8.70
2023-03-21T00:24:06.698Z,8.70
2023-03-21T00:26:38.212Z,8.70
2023-03-21T00:29:06.621Z,8.70
2023-03-21T00:31:34.975Z,8.70
2023-03-21T00:34:03.164Z,8.70
2023-03-21T00:36:32.787Z,8.70
2023-03-21T00:39:02.026Z,8.70
2023-03-21T00:41:45.569Z,8.70
2023-03-21T00:44:15.663Z,8.70
2023-03-21T00:46:57.080Z,8.70
2023-03-21T00:49:29.582Z,8.80
2023-03-21T00:52:08.651Z,8.70
2023-03-21T00:54:43.324Z,8.70
2023-03-21T00:57:11.383Z,8.80
2023-03-21T00:59:40.861Z,8.80
2023-03-21T01:02:15.053Z,8.80
2023-03-21T01:04:43.367Z,8.80
2023-03-21T01:07:11.583Z,8.80
2023-03-21T01:09:40.145Z,8.80
2023-03-21T01:12:08.385Z,8.80
2023-03-21T01:14:38.440Z,8.80
2023-03-21T01:17:08.507Z,8.70
2023-03-21T01:19:51.296Z,8.80
2023-03-21T01:22:21.311Z,8.80
2023-03-21T01:24:56.870Z,8.80
2023-03-21T01:27:29.315Z,8.80
2023-03-21T01:29:57.798Z,8.80
2023-03-21T01:32:28.365Z,8.80
2023-03-21T01:34:56.787Z,8.80
2023-03-21T01:37:26.545Z,8.80
2023-03-21T01:39:55.182Z,8.80
2023-03-21T01:42:24.040Z,8.80
2023-03-21T01:44:55.285Z,8.80
2023-03-21T01:47:24.248Z,8.80
2023-03-21T01:50:11.912Z,8.80
2023-03-21T01:52:51.410Z,8.80
2023-03-21T01:55:28.072Z,8.80
2023-03-21T01:58:18.359Z,8.80
2023-03-21T02:01:22.970Z,8.80
2023-03-21T02:03:56.018Z,8.80
2023-03-21T02:06:41.174Z,8.80
2023-03-21T02:09:29.173Z,8.80
2023-03-21T02:11:57.811Z,8.80
2023-03-21T02:14:33.353Z,8.80
2023-03-21T02:17:20.426Z,8.80
2023-03-21T02:20:28.425Z,8.80
2023-03-21T02:23:33.609Z,8.90
2023-03-21T02:26:42.387Z,8.80
2023-03-21T02:29:35.393Z,8.90
2023-03-21T02:32:20.220Z,8.90
2023-03-21T02:35:44.233Z,8.90
2023-03-21T02:38:30.363Z,8.90
2023-03-21T02:41:13.166Z,8.90
2023-03-21T02:43:53.640Z,8.90
2023-03-21T02:46:33.276Z,8.90
2023-03-21T02:49:12.852Z,8.90
2023-03-21T02:51:44.536Z,8.90
2023-03-21T02:54:32.280Z,8.90
2023-03-21T02:57:06.242Z,8.90
2023-03-21T02:59:44.405Z,8.90
2023-03-21T03:02:22.146Z,8.90
2023-03-21T03:04:50.707Z,8.90
2023-03-21T03:07:37.484Z,8.90
2023-03-21T03:10:29.502Z,8.90
2023-03-21T03:13:08.619Z,8.90
2023-03-21T03:15:45.883Z,8.90
2023-03-21T03:18:21.768Z,8.90
2023-03-21T03:21:02.106Z,8.90
2023-03-21T03:23:37.300Z,8.90
2023-03-21T03:26:12.425Z,8.90
2023-03-21T03:28:43.842Z,9.00
2023-03-21T03:31:26.047Z,9.00
2023-03-21T03:34:03.202Z,9.00
2023-03-21T03:36:35.835Z,9.00
2023-03-21T03:39:14.526Z,9.00
2023-03-21T03:42:21.897Z,9.00
2023-03-21T03:44:43.636Z,9.00
2023-03-21T03:47:29.886Z,9.00
2023-03-21T03:50:05.790Z,9.10
2023-03-21T03:52:53.474Z,9.10
2023-03-21T03:55:27.284Z,9.10
2023-03-21T03:58:04.660Z,9.00
2023-03-21T04:00:35.383Z,9.00
2023-03-21T04:03:03.764Z,9.00
2023-03-21T04:05:32.519Z,9.00
2023-03-21T04:08:00.907Z,9.10
2023-03-21T04:10:37.025Z,9.10
2023-03-21T04:13:06.691Z,9.00
2023-03-21T04:15:45.633Z,9.10
2023-03-21T04:18:17.259Z,9.10
2023-03-21T04:20:46.063Z,9.10
2023-03-21T04:23:14.563Z,9.10
2023-03-21T04:25:55.952Z,9.10
2023-03-21T04:28:33.679Z,9.10
2023-03-21T04:31:36.041Z,9.10
2023-03-21T04:34:13.750Z,9.10
2023-03-21T04:36:47.393Z,9.20
2023-03-21T04:39:16.827Z,9.20
2023-03-21T04:41:48.497Z,9.20
2023-03-21T04:44:19.268Z,9.20
2023-03-21T04:46:47.971Z,9.20
2023-03-21T04:49:16.141Z,9.20
2023-03-21T04:51:46.229Z,9.20
2023-03-21T04:54:19.021Z,9.20
2023-03-21T04:56:47.369Z,9.20
2023-03-21T04:59:17.805Z,9.30
2023-03-21T05:01:47.785Z,9.20
2023-03-21T05:04:16.289Z,9.30
2023-03-21T05:06:45.843Z,9.30
2023-03-21T05:09:14.661Z,9.30
2023-03-21T05:11:43.671Z,9.30
2023-03-21T05:14:17.570Z,9.30
2023-03-21T05:16:53.716Z,9.30
2023-03-21T05:19:24.108Z,9.30
2023-03-21T05:21:53.110Z,9.30
2023-03-21T05:24:24.328Z,9.30
2023-03-21T05:26:56.110Z,9.30
2023-03-21T05:29:26.607Z,9.30
2023-03-21T05:32:03.332Z,9.30
2023-03-21T05:34:32.224Z,9.30
2023-03-21T05:37:01.186Z,9.30
2023-03-21T05:39:41.267Z,9.30
2023-03-21T05:42:16.111Z,9.30
2023-03-21T05:44:45.112Z,9.30
2023-03-21T05:47:17.226Z,9.30
2023-03-21T05:49:48.313Z,9.30
2023-03-21T05:52:17.231Z,9.30
2023-03-21T05:54:46.809Z,9.40
2023-03-21T05:57:15.910Z,9.40
2023-03-21T06:00:08.963Z,9.40
2023-03-21T06:03:02.939Z,9.40
2023-03-21T06:05:51.397Z,9.40
2023-03-21T06:08:25.268Z,9.50
2023-03-21T06:10:53.472Z,9.50
2023-03-21T06:13:21.540Z,9.50
2023-03-21T06:15:50.470Z,9.50
2023-03-21T06:18:23.510Z,9.50
2023-03-21T06:21:11.632Z,9.50
2023-03-21T06:23:41.752Z,9.50
2023-03-21T06:26:10.029Z,9.50
2023-03-21T06:28:38.480Z,9.60
2023-03-21T06:31:07.251Z,9.60
2023-03-21T06:33:37.094Z,9.60
2023-03-21T06:36:05.969Z,9.60
2023-03-21T06:38:37.907Z,9.60
2023-03-21T06:41:07.594Z,9.60
2023-03-21T06:43:41.966Z,9.60
2023-03-21T06:46:10.528Z,9.70
2023-03-21T06:48:44.463Z,9.70
2023-03-21T06:51:14.060Z,9.70
2023-03-21T06:53:51.122Z,9.80
2023-03-21T06:56:40.035Z,9.90
2023-03-21T06:59:11.617Z,9.90
2023-03-21T07:01:53.036Z,10.00
2023-03-21T07:04:22.599Z,10.10
2023-03-21T07:06:51.830Z,10.10
2023-03-21T07:09:24.777Z,10.20
2023-03-21T07:11:55.741Z,10.20
2023-03-21T07:14:28.348Z,10.20
2023-03-21T07:16:58.560Z,10.20
2023-03-21T07:19:28.377Z,10.20
2023-03-21T07:21:56.666Z,10.30
2023-03-21T07:24:24.859Z,10.30
2023-03-21T07:26:54.458Z,10.40
2023-03-21T07:29:23.417Z,10.40
2023-03-21T07:31:51.663Z,10.40
2023-03-21T07:34:19.835Z,10.50
2023-03-21T07:36:49.561Z,10.50
2023-03-21T07:39:20.478Z,10.50
2023-03-21T07:41:48.798Z,10.60
2023-03-21T07:44:30.995Z,10.60
2023-03-21T07:47:04.279Z,10.60
2023-03-21T07:49:33.437Z,10.70
2023-03-21T07:52:04.825Z,10.70
2023-03-21T07:54:33.628Z,10.70
2023-03-21T07:57:02.236Z,10.70
2023-03-21T07:59:30.641Z,10.70
2023-03-21T08:01:58.732Z,10.70
2023-03-21T08:04:28.135Z,10.70
2023-03-21T08:06:57.382Z,10.70
2023-03-21T08:09:26.936Z,10.70
2023-03-21T08:11:55.552Z,10.80
2023-03-21T08:14:23.949Z,10.80
2023-03-21T08:16:52.119Z,10.90
2023-03-21T08:19:21.929Z,10.90
2023-03-21T08:21:51.072Z,10.90
2023-03-21T08:24:19.251Z,10.90
2023-03-21T08:26:48.879Z,10.90
2023-03-21T08:29:17.299Z,10.80
2023-03-21T08:31:45.421Z,10.80
2023-03-21T08:34:13.990Z,10.80
2023-03-21T08:36:42.080Z,10.90
2023-03-21T08:39:10.496Z,10.90
2023-03-21T08:41:39.216Z,10.90
2023-03-21T08:44:09.346Z,11.00
2023-03-21T08:46:37.876Z,11.00
2023-03-21T08:49:06.478Z,11.00
2023-03-21T08:51:34.769Z,11.00
2023-03-21T08:54:03.082Z,11.10
2023-03-21T08:56:31.395Z,11.10
2023-03-21T08:59:02.768Z,11.20
2023-03-21T09:01:32.808Z,11.20
2023-03-21T09:04:01.040Z,11.30
2023-03-21T09:06:30.000Z,11.30
2023-03-21T09:08:58.611Z,11.30
2023-03-21T09:11:26.812Z,11.30
2023-03-21T09:13:54.895Z,11.30
2023-03-21T09:16:25.012Z,11.40
2023-03-21T09:18:55.815Z,11.40
2023-03-21T09:21:25.150Z,11.40
2023-03-21T09:23:55.303Z,11.40
2023-03-21T09:26:25.606Z,11.30
2023-03-21T09:28:54.244Z,11.20
2023-03-21T09:31:24.728Z,11.20
2023-03-21T09:33:55.996Z,11.20
2023-03-21T09:36:25.038Z,11.20
2023-03-21T09:38:53.767Z,11.10
2023-03-21T09:41:33.702Z,11.10
2023-03-21T09:44:12.552Z,11.10
2023-03-21T09:46:46.764Z,11.10
2023-03-21T09:49:21.865Z,11.10
2023-03-21T09:51:52.982Z,11.10
2023-03-21T09:54:27.252Z,11.20
2023-03-21T09:56:58.332Z,11.20
2023-03-21T09:59:33.802Z,11.30
2023-03-21T10:02:03.500Z,11.30
2023-03-21T10:04:33.949Z,11.40
2023-03-21T10:07:04.030Z,11.50
2023-03-21T10:09:33.456Z,11.60
2023-03-21T10:12:06.398Z,11.70
2023-03-21T10:14:38.542Z,11.90
2023-03-21T10:17:26.362Z,12.00
2023-03-21T10:20:11.804Z,12.20
2023-03-21T10:22:40.619Z,12.40
2023-03-21T10:25:12.456Z,12.50
2023-03-21T10:27:40.707Z,12.60
2023-03-21T10:30:14.015Z,12.60
2023-03-21T10:32:42.276Z,12.50
2023-03-21T10:35:15.672Z,12.40
2023-03-21T10:37:43.842Z,12.40
2023-03-21T10:40:17.141Z,12.20
2023-03-21T10:42:45.637Z,12.20
2023-03-21T10:45:19.716Z,12.00
2023-03-21T10:47:49.172Z,12.00
2023-03-21T10:50:25.785Z,12.00
2023-03-21T10:53:00.504Z,11.90
2023-03-21T10:55:32.407Z,11.90
2023-03-21T10:58:03.687Z,11.90
2023-03-21T11:00:37.084Z,11.80
2023-03-21T11:03:06.158Z,11.70
2023-03-21T11:05:41.562Z,11.60
2023-03-21T11:08:14.905Z,11.60
2023-03-21T11:10:55.541Z,11.50
2023-03-21T11:13:27.057Z,11.50
2023-03-21T11:15:58.647Z,11.40
2023-03-21T11:18:28.930Z,11.30
2023-03-21T11:21:03.608Z,11.30
2023-03-21T11:23:35.381Z,11.40
2023-03-21T11:26:10.041Z,11.40
2023-03-21T11:28:40.274Z,11.40
2023-03-21T11:31:09.797Z,11.40
2023-03-21T11:33:40.778Z,11.40
2023-03-21T11:36:28.829Z,11.40
2023-03-21T11:39:00.113Z,11.50
2023-03-21T11:41:31.354Z,11.40
2023-03-21T11:44:01.171Z,11.50
2023-03-21T11:46:31.163Z,11.40
2023-03-21T11:49:00.570Z,11.50
2023-03-21T11:51:42.150Z,11.50
2023-03-21T11:57:12.615Z,11.60
2023-03-21T11:59:48.278Z,11.60
2023-03-21T12:02:37.972Z,11.70
2023-03-21T12:05:16.440Z,11.70
2023-03-21T12:07:56.439Z,11.80
2023-03-21T12:10:33.724Z,11.80
2023-03-21T12:13:13.546Z,11.80
2023-03-21T12:15:46.892Z,11.70
2023-03-21T12:18:28.859Z,11.70
2023-03-21T12:20:59.832Z,11.80
2023-03-21T12:23:43.984Z,11.80
2023-03-21T12:26:23.157Z,11.80
2023-03-21T12:29:19.317Z,11.70
2023-03-21T12:32:01.621Z,11.60
2023-03-21T12:34:47.929Z,11.50
2023-03-21T12:37:25.849Z,11.50
2023-03-21T12:40:02.570Z,11.50
2023-03-21T12:43:14.967Z,11.40
2023-03-21T12:45:47.904Z,11.40
2023-03-21T12:48:22.268Z,11.30
2023-03-21T12:50:53.771Z,11.30
2023-03-21T12:53:36.068Z,11.30
2023-03-21T12:56:11.430Z,11.30
2023-03-21T12:58:48.811Z,11.30
2023-03-21T13:01:20.838Z,11.20
2023-03-21T13:03:53.208Z,11.10
2023-03-21T13:06:25.526Z,11.00
2023-03-21T13:08:59.337Z,10.90
2023-03-21T13:11:31.279Z,10.90
2023-03-21T13:14:05.409Z,10.90
2023-03-21T13:16:35.222Z,10.90
2023-03-21T13:19:14.984Z,10.80
2023-03-21T13:21:51.706Z,10.80
2023-03-21T13:24:26.063Z,10.80
2023-03-21T13:27:02.568Z,10.90
2023-03-21T13:29:33.832Z,10.80
2023-03-21T13:32:10.750Z,10.80
2023-03-21T13:34:41.403Z,10.80
2023-03-21T13:37:17.752Z,10.80
2023-03-21T13:39:47.335Z,10.80
2023-03-21T13:42:24.638Z,10.70
2023-03-21T13:44:57.167Z,10.70
2023-03-21T13:47:40.651Z,10.70
2023-03-21T13:50:52.179Z,10.80
2023-03-21T13:53:30.832Z,10.70
2023-03-21T13:56:25.294Z,10.70
2023-03-21T13:59:02.123Z,10.70
2023-03-21T14:01:39.752Z,10.70
2023-03-21T14:04:15.500Z,10.70
2023-03-21T14:06:48.995Z,10.80
2023-03-21T14:09:23.325Z,10.90
2023-03-21T14:11:56.437Z,10.90
2023-03-21T14:14:31.752Z,10.90
2023-03-21T14:16:59.924Z,11.00
2023-03-21T14:19:32.826Z,11.10
2023-03-21T14:22:00.984Z,11.10
2023-03-21T14:24:29.482Z,11.20
2023-03-21T14:26:59.054Z,11.30
2023-03-21T14:29:32.929Z,11.30
2023-03-21T14:32:02.103Z,11.40
2023-03-21T14:34:33.796Z,11.30
2023-03-21T14:37:02.179Z,11.30
2023-03-21T14:39:32.150Z,11.10
2023-03-21T14:42:05.451Z,11.00
2023-03-21T14:44:53.837Z,11.00
2023-03-21T14:47:25.146Z,10.90
2023-03-21T14:49:54.109Z,10.90
2023-03-21T14:52:25.843Z,11.00
2023-03-21T14:54:55.989Z,11.00
2023-03-21T14:57:28.737Z,10.90
2023-03-21T15:00:01.872Z,11.00
2023-03-21T15:02:34.819Z,11.00
2023-03-21T15:05:11.056Z,10.90
2023-03-21T15:07:39.250Z,10.90
2023-03-21T15:10:09.824Z,10.90
2023-03-21T15:12:37.948Z,10.90
2023-03-21T15:15:08.646Z,10.90
2023-03-21T15:17:37.294Z,11.00
2023-03-21T15:20:10.157Z,10.90
2023-03-21T15:22:42.723Z,10.90
2023-03-21T15:25:18.003Z,10.90
2023-03-21T15:27:46.425Z,10.90
2023-03-21T15:30:23.386Z,10.80
2023-03-21T15:32:52.316Z,10.80
2023-03-21T15:35:23.158Z,10.80
2023-03-21T15:37:57.163Z,10.80
2023-03-21T15:40:28.226Z,10.90
2023-03-21T15:43:07.496Z,10.90
2023-03-21T15:45:48.418Z,10.90
2023-03-21T15:48:17.144Z,11.00
2023-03-21T15:50:52.154Z,11.00
2023-03-21T15:53:21.461Z,11.00
2023-03-21T15:55:52.159Z,11.00
2023-03-21T15:58:22.484Z,11.00
2023-03-21T16:00:55.583Z,11.00
2023-03-21T16:03:27.284Z,10.90
2023-03-21T16:06:17.048Z,10.90
2023-03-21T16:08:47.482Z,10.90
2023-03-21T16:11:19.731Z,10.90
2023-03-21T16:13:47.938Z,10.90
2023-03-21T16:16:20.136Z,10.90
2023-03-21T16:18:48.749Z,10.90
2023-03-21T16:21:19.267Z,10.90
2023-03-21T16:23:49.337Z,10.90
2023-03-21T16:26:19.487Z,10.90
2023-03-21T16:28:48.175Z,10.80
2023-03-21T16:31:20.336Z,10.90
2023-03-21T16:33:49.053Z,10.90
2023-03-21T16:36:19.660Z,10.90
2023-03-21T16:38:49.566Z,10.80
2023-03-21T16:41:18.431Z,10.80
2023-03-21T16:43:47.088Z,10.80
2023-03-21T16:46:18.065Z,10.90
2023-03-21T16:48:48.971Z,10.80
2023-03-21T16:51:19.350Z,10.80
2023-03-21T16:53:47.864Z,10.80
2023-03-21T16:56:18.246Z,10.80
2023-03-21T16:58:46.713Z,10.80
2023-03-21T17:01:19.176Z,10.80
2023-03-21T17:03:48.666Z,10.80
2023-03-21T17:06:18.980Z,10.80
2023-03-21T17:08:47.989Z,10.80
2023-03-21T17:11:20.032Z,10.80
2023-03-21T17:13:48.751Z,10.80
2023-03-21T17:16:22.088Z,10.80
2023-03-21T17:18:51.390Z,10.80
2023-03-21T17:21:21.338Z,10.80
2023-03-21T17:23:50.766Z,10.80
2023-03-21T17:26:21.882Z,10.80
2023-03-21T17:28:50.433Z,10.70
2023-03-21T17:31:21.967Z,10.70
2023-03-21T17:33:51.055Z,10.60
2023-03-21T17:36:20.850Z,10.60
2023-03-21T17:38:49.712Z,10.50
2023-03-21T17:41:20.194Z,10.50
2023-03-21T17:43:49.025Z,10.50
2023-03-21T17:46:22.269Z,10.40
2023-03-21T17:48:51.209Z,10.40
2023-03-21T17:51:19.416Z,10.30
2023-03-21T17:53:50.678Z,10.30
2023-03-21T17:56:22.813Z,10.30
2023-03-21T17:58:50.941Z,10.30
2023-03-21T18:01:21.058Z,10.30
2023-03-21T18:03:49.169Z,10.30
2023-03-21T18:06:18.876Z,10.30
2023-03-21T18:08:48.374Z,10.30
2023-03-21T18:11:17.938Z,10.30
2023-03-21T18:13:46.910Z,10.30
2023-03-21T18:16:17.905Z,10.30
2023-03-21T18:18:47.855Z,10.40
2023-03-21T18:21:19.512Z,10.40
2023-03-21T18:23:48.907Z,10.40
2023-03-21T18:26:19.787Z,10.40
2023-03-21T18:29:43.891Z,10.50
2023-03-21T18:31:39.351Z,10.50
2023-03-21T18:34:08.817Z,10.50
2023-03-21T18:36:36.998Z,10.50
2023-03-21T18:39:06.763Z,10.50
2023-03-21T18:41:34.985Z,10.50
2023-03-21T18:44:13.419Z,10.50
2023-03-21T18:46:47.448Z,10.50
2023-03-21T18:50:02.058Z,10.50
2023-03-21T18:52:07.832Z,10.50
2023-03-21T18:54:36.727Z,10.60
2023-03-21T18:57:35.753Z,10.60
2023-03-21T18:59:54.198Z,10.50
2023-03-21T19:02:22.380Z,10.60
2023-03-21T19:04:52.155Z,10.60
2023-03-21T19:07:20.499Z,10.60
2023-03-21T19:10:16.081Z,10.60
2023-03-21T19:12:36.857Z,10.70
2023-03-21T19:15:06.531Z,10.70
2023-03-21T19:18:23.150Z,10.80
2023-03-21T19:20:24.938Z,10.70
2023-03-21T19:22:53.586Z,10.70
2023-03-21T19:25:21.759Z,10.80
2023-03-21T19:27:52.111Z,10.80
2023-03-21T19:30:20.646Z,10.80
2023-03-21T19:32:48.742Z,10.80
2023-03-21T19:35:17.435Z,10.80
2023-03-21T19:37:47.369Z,10.80
2023-03-21T19:40:15.595Z,10.80
2023-03-21T19:42:43.663Z,10.80
2023-03-21T19:45:12.925Z,10.70
2023-03-21T19:47:41.303Z,10.70
2023-03-21T19:53:00.469Z,10.70
2023-03-21T19:55:28.695Z,10.70
2023-03-21T19:57:56.813Z,10.70
2023-03-21T20:00:25.055Z,10.70
2023-03-21T20:02:53.229Z,10.70
2023-03-21T20:05:22.059Z,10.70
2023-03-21T20:07:50.499Z,10.70
2023-03-21T20:10:20.617Z,10.80
2023-03-21T20:12:48.793Z,10.80
2023-03-21T20:15:20.785Z,10.80
2023-03-21T20:17:50.134Z,10.80
2023-03-21T20:20:19.347Z,10.80
2023-03-21T20:23:08.032Z,10.80
2023-03-21T20:25:40.941Z,10.80
2023-03-21T20:28:24.670Z,10.80
2023-03-21T20:30:58.516Z,10.80
2023-03-21T20:33:26.846Z,10.80
2023-03-21T20:38:50.856Z,10.80
2023-03-21T20:41:20.944Z,10.80
2023-03-21T20:46:37.928Z,10.80
2023-03-21T20:49:07.316Z,10.70
2023-03-21T20:54:24.475Z,10.80
2023-03-21T20:56:54.054Z,10.70
2023-03-21T20:59:27.246Z,10.70
2023-03-21T21:01:57.169Z,10.70
2023-03-21T21:04:46.958Z,10.60
2023-03-21T21:07:17.168Z,10.60
2023-03-21T21:09:46.015Z,10.60
2023-03-21T21:12:17.642Z,10.60
2023-03-21T21:14:47.968Z,10.60
2023-03-21T21:17:31.181Z,10.60
2023-03-21T21:20:16.235Z,10.50
2023-03-21T21:22:58.206Z,10.50
2023-03-21T21:25:27.739Z,10.50
2023-03-21T21:27:57.311Z,10.50
2023-03-21T21:30:25.666Z,10.50
2023-03-21T21:32:54.144Z,10.50
2023-03-21T21:35:22.734Z,10.40
2023-03-21T21:37:51.145Z,10.40
2023-03-21T21:40:23.285Z,10.30
2023-03-21T21:42:51.619Z,10.30
2023-03-21T21:45:21.463Z,10.20
2023-03-21T21:47:49.893Z,10.20
2023-03-21T21:50:18.908Z,10.20
2023-03-21T21:52:52.821Z,10.20
2023-03-21T21:55:21.332Z,10.10
2023-03-21T21:57:51.013Z,10.00
2023-03-21T22:00:21.680Z,10.00
2023-03-21T22:02:49.917Z,9.90
2023-03-21T22:05:19.329Z,9.90
2023-03-21T22:07:47.732Z,9.80
2023-03-21T22:10:16.251Z,9.80
2023-03-21T22:12:47.263Z,9.70
2023-03-21T22:15:18.206Z,9.70
2023-03-21T22:17:47.719Z,9.70
2023-03-21T22:20:18.520Z,9.70
2023-03-21T22:22:47.221Z,9.70
2023-03-21T22:25:16.936Z,9.70
2023-03-21T22:27:45.579Z,9.70
2023-03-21T22:30:17.439Z,9.70
2023-03-21T22:32:56.381Z,9.70
2023-03-21T22:35:31.207Z,9.70
2023-03-21T22:37:59.474Z,9.70
2023-03-21T22:40:27.763Z,9.60
2023-03-21T22:42:56.003Z,9.60
2023-03-21T22:45:24.175Z,9.50
2023-03-21T22:47:53.713Z,9.50
2023-03-21T22:50:22.280Z,9.60
2023-03-21T22:52:50.877Z,9.60
2023-03-21T22:55:19.148Z,9.60
2023-03-21T22:57:47.483Z,9.70
2023-03-21T23:00:16.452Z,9.70
2023-03-21T23:02:44.514Z,9.70
2023-03-21T23:05:14.369Z,9.70
2023-03-21T23:07:42.478Z,9.70
2023-03-21T23:10:12.609Z,9.80
2023-03-21T23:12:41.557Z,9.80
2023-03-21T23:15:11.036Z,9.90
2023-03-21T23:17:39.147Z,9.90
2023-03-21T23:20:08.772Z,9.90
2023-03-21T23:22:38.524Z,9.90
2023-03-21T23:25:07.715Z,9.90
2023-03-21T23:27:36.427Z,9.90
2023-03-21T23:30:06.347Z,10.00
2023-03-21T23:32:34.853Z,10.00
2023-03-21T23:35:03.474Z,9.90
2023-03-21T23:37:31.602Z,9.90
2023-03-21T23:40:01.141Z,9.90
2023-03-21T23:42:31.235Z,9.90
2023-03-21T23:44:59.371Z,9.90
2023-03-21T23:47:27.483Z,9.90
2023-03-21T23:49:55.803Z,9.90
2023-03-21T23:52:23.957Z,9.80
2023-03-21T23:54:52.274Z,9.80
2023-03-21T23:57:22.082Z,9.70
2023-03-21T23:59:50.262Z,9.60
